Terminal Aerodrome Forecast
Issued by NWS

Current Version | Previous Version | Text Only | Print | Product List | Glossary On
Versions: 1 2 3 4 5 6 7 8 9 10 11 12 13 14 15 16 17
000
FTUS41 KPHI 301100
TAFPNE
TAF
KPNE 301122Z 3012/3112 31005KT P6SM SKC
      TEMPO 3012/3013 6SM BR
     FM301400 32008KT P6SM SCT050
     FM310600 01003KT P6SM SCT250=

USA.gov is the U.S. government's official web portal to all federal, state and local government web resources and services.